Time;durP1;ratioP1;P1;durP2;ratioP2;P2;SDS_P1;SDS_P2;PMS_P1;PMS_P2;Temp;Humidity;BMP_temperature;BMP_pressure;BME280_temperature;BME280_humidity;BME280_pressure;Samples;Min_cycle;Max_cycle;Signal;HPM_P1;HPM_P2
2023/08/23 00:01:56;;;;;;;0.10;0.10;;;14.00;55.90;;;;;;5030210;28;20483;-60
2023/08/23 00:04:26;;;;;;;0.10;0.10;;;14.10;56.00;;;;;;5030486;28;20201;-60
2023/08/23 00:06:59;;;;;;;0.10;0.10;;;14.10;56.10;;;;;;5030964;28;20204;-60
2023/08/23 00:09:30;;;;;;;0.10;0.10;;;14.10;56.10;;;;;;5030891;28;20207;-61
2023/08/23 00:12:00;;;;;;;0.10;0.10;;;14.20;56.10;;;;;;5031355;28;20653;-61
2023/08/23 00:14:31;;;;;;;0.10;0.10;;;14.20;56.10;;;;;;5034920;28;20204;-61
2023/08/23 00:17:02;;;;;;;0.10;0.10;;;14.20;56.10;;;;;;5034696;28;20192;-60
2023/08/23 00:19:32;;;;;;;0.10;0.10;;;14.20;56.20;;;;;;5034893;28;20196;-60
2023/08/23 00:22:10;;;;;;;0.00;0.00;;;14.30;56.20;;;;;;5034813;28;20625;-61
2023/08/23 00:24:40;;;;;;;0.10;0.10;;;14.30;56.20;;;;;;5034605;28;20203;-61
2023/08/23 00:27:11;;;;;;;0.10;0.10;;;14.40;56.30;;;;;;5034622;28;20226;-61
2023/08/23 00:29:41;;;;;;;0.10;0.10;;;14.40;56.30;;;;;;5035214;28;20200;-61
2023/08/23 00:32:12;;;;;;;0.10;0.10;;;14.40;56.30;;;;;;5034553;28;20211;-60
2023/08/23 00:34:43;;;;;;;0.10;0.10;;;14.40;56.20;;;;;;5034338;28;20226;-60
2023/08/23 00:37:15;;;;;;;0.10;0.10;;;14.50;56.40;;;;;;5034059;28;20598;-60
2023/08/23 00:39:46;;;;;;;0.10;0.10;;;14.50;56.40;;;;;;5031126;28;20675;-60
2023/08/23 00:42:17;;;;;;;0.20;0.20;;;14.50;56.50;;;;;;5033627;28;20224;-60
2023/08/23 00:44:47;;;;;;;0.10;0.10;;;14.50;56.60;;;;;;5033650;28;20192;-60
2023/08/23 00:47:18;;;;;;;0.10;0.10;;;14.50;56.60;;;;;;5033519;28;20239;-60
2023/08/23 00:49:49;;;;;;;0.10;0.10;;;14.60;56.60;;;;;;5032866;28;20188;-60
2023/08/23 00:52:21;;;;;;;0.10;0.10;;;14.60;56.60;;;;;;5034084;28;20204;-60
2023/08/23 00:54:52;;;;;;;0.10;0.10;;;14.60;56.60;;;;;;5033204;28;20192;-61
2023/08/23 00:57:24;;;;;;;0.10;0.10;;;14.70;56.60;;;;;;5031917;28;20213;-61
2023/08/23 00:59:54;;;;;;;0.10;0.10;;;14.70;56.60;;;;;;5032764;28;20204;-60
2023/08/23 01:02:25;;;;;;;0.10;0.10;;;14.80;56.70;;;;;;5033407;28;20228;-61
2023/08/23 01:04:56;;;;;;;0.17;0.17;;;14.80;56.60;;;;;;5033050;28;20199;-60
2023/08/23 01:07:35;;;;;;;0.10;0.10;;;14.80;56.60;;;;;;5032643;28;20269;-61
2023/08/23 01:10:15;;;;;;;0.10;0.10;;;14.90;56.60;;;;;;5033680;28;20203;-61
2023/08/23 01:12:53;;;;;;;0.10;0.10;;;14.90;56.60;;;;;;5032880;28;20192;-61
2023/08/23 01:15:25;;;;;;;0.10;0.10;;;14.90;56.50;;;;;;5049434;28;20199;-60
2023/08/23 01:17:56;;;;;;;0.10;0.10;;;14.90;56.50;;;;;;5048829;28;20252;-60
2023/08/23 01:20:27;;;;;;;0.10;0.10;;;14.90;56.60;;;;;;5050185;28;20531;-61
2023/08/23 01:23:09;;;;;;;0.08;0.08;;;14.90;56.50;;;;;;5053099;28;20679;-61
2023/08/23 01:25:44;;;;;;;0.10;0.10;;;14.90;57.10;;;;;;5052432;28;20247;-61
2023/08/23 01:28:15;;;;;;;0.10;0.10;;;15.00;56.60;;;;;;5032583;28;20215;-61
2023/08/23 01:30:46;;;;;;;0.10;0.10;;;15.00;56.50;;;;;;5032751;28;20192;-61
2023/08/23 01:33:21;;;;;;;0.10;0.10;;;15.00;56.50;;;;;;5033358;28;20196;-61
2023/08/23 01:35:58;;;;;;;0.10;0.10;;;15.00;56.50;;;;;;5052131;28;20615;-61
2023/08/23 01:38:33;;;;;;;0.10;0.10;;;15.10;56.60;;;;;;5052000;28;20258;-61
2023/08/23 01:41:04;;;;;;;0.10;0.10;;;15.10;56.60;;;;;;5013067;28;20228;-61
2023/08/23 01:43:34;;;;;;;0.00;0.00;;;15.10;56.50;;;;;;5026661;28;20192;-61
2023/08/23 01:46:05;;;;;;;0.10;0.10;;;15.20;56.60;;;;;;5040296;28;20188;-61
2023/08/23 01:48:36;;;;;;;0.20;0.20;;;15.20;56.50;;;;;;5032845;28;20684;-61
2023/08/23 01:51:06;;;;;;;0.10;0.10;;;15.20;56.50;;;;;;5031939;28;20291;-61
2023/08/23 01:53:39;;;;;;;0.10;0.10;;;15.20;56.50;;;;;;5033271;28;20203;-61
2023/08/23 01:56:10;;;;;;;0.10;0.10;;;15.30;56.50;;;;;;5032701;28;20196;-61
2023/08/23 01:58:40;;;;;;;0.10;0.10;;;15.30;56.60;;;;;;5031947;28;20688;-61
2023/08/23 02:01:11;;;;;;;0.10;0.10;;;15.30;56.70;;;;;;5032838;28;20227;-61
2023/08/23 02:03:41;;;;;;;0.13;0.13;;;15.40;56.60;;;;;;5029646;28;20925;-62
2023/08/23 02:06:12;;;;;;;0.10;0.10;;;15.40;56.60;;;;;;5032427;28;20542;-61
2023/08/23 02:08:45;;;;;;;0.10;0.10;;;15.40;56.60;;;;;;5031453;28;20203;-61
2023/08/23 02:11:15;;;;;;;0.10;0.10;;;15.40;56.60;;;;;;5031928;28;20193;-61
2023/08/23 02:13:46;;;;;;;0.10;0.10;;;15.40;56.50;;;;;;5012171;28;20197;-61
2023/08/23 02:16:16;;;;;;;0.00;0.00;;;15.50;56.40;;;;;;5025204;28;20188;-61
2023/08/23 02:18:47;;;;;;;0.10;0.10;;;15.50;56.40;;;;;;5031270;28;20619;-61
2023/08/23 02:21:18;;;;;;;0.10;0.10;;;15.50;56.40;;;;;;5032239;28;20227;-61
2023/08/23 02:23:50;;;;;;;0.20;0.20;;;15.50;56.30;;;;;;5032467;28;20207;-61
2023/08/23 02:26:21;;;;;;;0.10;0.10;;;15.50;56.30;;;;;;5032130;28;20204;-61
2023/08/23 02:28:51;;;;;;;0.10;0.10;;;15.60;56.30;;;;;;5031847;28;20252;-61
2023/08/23 02:31:22;;;;;;;0.10;0.10;;;15.60;56.20;;;;;;5031796;28;20196;-61
2023/08/23 02:33:53;;;;;;;0.10;0.10;;;15.60;56.20;;;;;;5032089;28;20203;-61
2023/08/23 02:36:23;;;;;;;0.10;0.10;;;15.60;56.20;;;;;;5030623;28;20196;-61
2023/08/23 02:38:56;;;;;;;0.10;0.10;;;15.70;56.20;;;;;;5031227;28;20239;-61
2023/08/23 02:41:27;;;;;;;0.00;0.00;;;15.70;56.20;;;;;;5030961;28;20224;-62
2023/08/23 02:43:58;;;;;;;0.10;0.10;;;15.70;56.20;;;;;;5031438;28;20204;-61
2023/08/23 02:46:28;;;;;;;0.10;0.10;;;15.80;56.20;;;;;;5030427;28;20200;-62
2023/08/23 02:48:59;;;;;;;0.00;0.00;;;15.80;56.20;;;;;;5031133;28;20220;-61
2023/08/23 02:51:29;;;;;;;0.10;0.10;;;15.80;56.20;;;;;;5031586;28;20671;-61
2023/08/23 02:54:02;;;;;;;0.05;0.05;;;15.80;56.20;;;;;;5031391;28;20201;-61
2023/08/23 02:56:33;;;;;;;0.10;0.10;;;15.90;56.20;;;;;;5031012;28;20362;-61
2023/08/23 02:59:04;;;;;;;0.10;0.10;;;15.90;56.20;;;;;;5030335;28;20208;-61
2023/08/23 03:01:34;;;;;;;0.10;0.10;;;15.90;56.20;;;;;;5031167;28;20706;-61
2023/08/23 03:04:05;;;;;;;0.10;0.10;;;16.00;56.20;;;;;;5030090;28;20196;-61
2023/08/23 03:06:36;;;;;;;0.10;0.10;;;16.00;56.20;;;;;;5030381;28;20203;-61
2023/08/23 03:09:08;;;;;;;0.08;0.08;;;16.00;56.80;;;;;;5030790;28;20224;-61
2023/08/23 03:11:39;;;;;;;0.10;0.10;;;16.00;56.10;;;;;;5032003;28;20199;-61
2023/08/23 03:14:09;;;;;;;0.10;0.10;;;16.10;56.10;;;;;;5031306;28;20663;-61
2023/08/23 03:16:40;;;;;;;0.10;0.10;;;16.10;56.00;;;;;;5031875;28;20200;-61
2023/08/23 03:19:11;;;;;;;0.10;0.10;;;16.10;55.90;;;;;;5031744;28;20220;-61
2023/08/23 03:21:41;;;;;;;0.10;0.10;;;16.20;56.00;;;;;;5031389;28;20683;-61
2023/08/23 03:24:14;;;;;;;0.10;0.10;;;16.20;55.90;;;;;;5028324;28;20204;-61
2023/08/23 03:26:44;;;;;;;0.10;0.10;;;16.20;56.00;;;;;;5030508;28;20200;-61
2023/08/23 03:29:15;;;;;;;0.10;0.10;;;16.30;55.90;;;;;;5030676;28;20223;-61
2023/08/23 03:31:45;;;;;;;0.10;0.10;;;16.30;55.90;;;;;;5030670;28;20652;-61
2023/08/23 03:34:16;;;;;;;0.08;0.08;;;16.30;55.90;;;;;;5030961;28;20192;-61
2023/08/23 03:36:47;;;;;;;0.10;0.10;;;16.40;55.90;;;;;;5030389;28;20188;-61
2023/08/23 03:39:19;;;;;;;0.10;0.10;;;16.40;55.90;;;;;;5042091;28;20219;-61
2023/08/23 03:41:51;;;;;;;0.10;0.10;;;16.40;55.90;;;;;;5042606;28;20577;-61
2023/08/23 03:44:21;;;;;;;0.10;0.10;;;16.50;55.90;;;;;;5042531;28;20199;-61
2023/08/23 03:46:52;;;;;;;0.10;0.10;;;16.50;55.80;;;;;;5052718;28;20195;-61
2023/08/23 03:49:23;;;;;;;0.10;0.10;;;16.50;55.80;;;;;;5054923;28;20187;-61
2023/08/23 03:51:53;;;;;;;0.00;0.00;;;16.50;55.70;;;;;;5055349;28;20572;-61
2023/08/23 03:54:26;;;;;;;0.00;0.00;;;16.60;55.70;;;;;;5054213;28;20199;-61
2023/08/23 03:56:56;;;;;;;0.05;0.05;;;16.60;55.60;;;;;;5046298;28;20648;-61
2023/08/23 03:59:27;;;;;;;0.08;0.08;;;16.60;55.60;;;;;;5034302;28;20188;-61
2023/08/23 04:01:57;;;;;;;0.10;0.10;;;16.60;55.50;;;;;;5034594;28;20220;-61
2023/08/23 04:04:28;;;;;;;0.10;0.10;;;16.60;55.40;;;;;;5033986;28;20196;-61
2023/08/23 04:06:59;;;;;;;0.10;0.10;;;16.70;55.50;;;;;;5034262;28;20211;-61
2023/08/23 04:09:31;;;;;;;0.00;0.00;;;16.70;55.40;;;;;;5034552;28;20192;-61
2023/08/23 04:12:02;;;;;;;0.05;0.05;;;16.70;55.40;;;;;;5033503;28;20201;-61
2023/08/23 04:14:32;;;;;;;0.00;0.00;;;16.80;55.40;;;;;;5034560;28;20196;-61
2023/08/23 04:17:03;;;;;;;0.10;0.10;;;16.70;55.30;;;;;;5033941;28;20262;-61
2023/08/23 04:19:34;;;;;;;0.00;0.00;;;16.80;55.30;;;;;;5034826;28;20585;-61
2023/08/23 04:22:04;;;;;;;0.00;0.00;;;16.80;55.20;;;;;;5034105;28;20220;-61
2023/08/23 04:24:37;;;;;;;0.10;0.10;;;16.90;55.30;;;;;;5034409;28;20199;-61
2023/08/23 04:27:08;;;;;;;0.03;0.03;;;16.90;55.30;;;;;;5033798;28;20207;-61
2023/08/23 04:29:38;;;;;;;0.10;0.10;;;16.90;55.20;;;;;;5046833;28;20554;-61
2023/08/23 04:32:12;;;;;;;0.10;0.10;;;16.90;55.20;;;;;;5054786;28;20207;-61
2023/08/23 04:34:43;;;;;;;0.10;0.10;;;16.90;55.10;;;;;;5054421;28;20286;-61
2023/08/23 04:37:14;;;;;;;0.10;0.10;;;17.00;55.20;;;;;;5054602;28;20196;-61
2023/08/23 04:39:46;;;;;;;0.10;0.10;;;17.00;55.10;;;;;;5054250;28;20204;-61
2023/08/23 04:42:17;;;;;;;0.10;0.10;;;17.00;55.10;;;;;;5053468;28;20230;-61
2023/08/23 04:44:47;;;;;;;0.10;0.10;;;17.00;55.10;;;;;;5053928;28;20191;-61
2023/08/23 04:47:18;;;;;;;0.10;0.10;;;17.10;55.10;;;;;;5054715;28;20226;-61
2023/08/23 04:49:49;;;;;;;0.10;0.10;;;17.10;55.00;;;;;;5054274;28;20249;-61
2023/08/23 04:52:19;;;;;;;0.00;0.00;;;17.10;54.90;;;;;;5054108;28;20598;-61
2023/08/23 04:54:52;;;;;;;0.10;0.10;;;17.10;54.90;;;;;;5054027;28;20203;-61
2023/08/23 04:57:22;;;;;;;0.10;0.10;;;17.10;54.80;;;;;;5041137;28;20270;-61
2023/08/23 04:59:53;;;;;;;0.10;0.10;;;17.10;54.80;;;;;;5013483;28;20196;-61
2023/08/23 05:02:24;;;;;;;0.10;0.10;;;17.10;54.80;;;;;;5013948;28;20228;-61
2023/08/23 05:04:55;;;;;;;0.05;0.05;;;17.20;54.80;;;;;;5019677;28;20195;-61
2023/08/23 05:07:25;;;;;;;0.00;0.00;;;17.20;54.70;;;;;;5034129;28;20220;-61
2023/08/23 05:09:58;;;;;;;0.10;0.10;;;17.20;54.70;;;;;;5033743;28;20199;-62
2023/08/23 05:12:28;;;;;;;0.00;0.00;;;17.20;54.70;;;;;;5030206;28;20540;-62
2023/08/23 05:14:59;;;;;;;0.10;0.10;;;17.20;54.60;;;;;;5013615;28;20648;-62
2023/08/23 05:17:30;;;;;;;0.05;0.05;;;17.20;54.60;;;;;;5030384;28;20227;-61
2023/08/23 05:20:00;;;;;;;0.00;0.00;;;17.10;54.60;;;;;;5032861;28;20200;-62
2023/08/23 05:22:31;;;;;;;0.10;0.10;;;17.20;54.60;;;;;;5050021;28;20616;-61
2023/08/23 05:25:03;;;;;;;0.10;0.10;;;17.20;54.60;;;;;;5053253;28;20198;-62
2023/08/23 05:27:34;;;;;;;0.10;0.10;;;17.20;54.60;;;;;;5038948;28;20612;-62
2023/08/23 05:30:05;;;;;;;0.00;0.00;;;17.20;54.60;;;;;;5033057;28;20202;-62
2023/08/23 05:32:35;;;;;;;0.10;0.10;;;17.20;54.50;;;;;;5032760;28;20201;-61
2023/08/23 05:35:07;;;;;;;0.00;0.00;;;17.20;54.40;;;;;;5033209;28;20620;-61
2023/08/23 05:37:38;;;;;;;0.00;0.00;;;17.20;54.40;;;;;;5032079;28;20576;-62
2023/08/23 05:40:11;;;;;;;0.10;0.10;;;17.20;54.50;;;;;;5032560;28;20200;-62
2023/08/23 05:42:42;;;;;;;0.00;0.00;;;17.20;54.50;;;;;;5048904;28;20272;-62
2023/08/23 05:45:13;;;;;;;0.00;0.00;;;17.20;54.50;;;;;;5052737;28;20656;-62
2023/08/23 05:47:43;;;;;;;0.03;0.03;;;17.20;54.50;;;;;;5040362;28;20223;-62
2023/08/23 05:50:14;;;;;;;0.10;0.10;;;17.20;54.40;;;;;;5032474;28;20200;-62
2023/08/23 05:52:45;;;;;;;0.00;0.00;;;17.20;54.30;;;;;;5032341;28;20196;-61
2023/08/23 05:55:17;;;;;;;0.00;0.00;;;17.20;54.20;;;;;;5031482;28;20211;-61
2023/08/23 05:57:48;;;;;;;0.10;0.10;;;17.20;54.30;;;;;;5031931;28;20223;-62
2023/08/23 06:00:19;;;;;;;0.00;0.00;;;17.20;54.20;;;;;;5031615;28;20196;-61
2023/08/23 06:02:49;;;;;;;0.00;0.00;;;17.10;54.10;;;;;;5031411;28;20223;-62
2023/08/23 06:05:20;;;;;;;0.10;0.10;;;17.10;54.10;;;;;;5032177;28;20192;-61
2023/08/23 06:07:51;;;;;;;0.00;0.00;;;17.10;54.10;;;;;;5032123;28;20213;-61
2023/08/23 06:10:23;;;;;;;0.00;0.00;;;17.10;54.00;;;;;;5032455;28;20200;-61
2023/08/23 06:12:54;;;;;;;0.10;0.10;;;17.10;53.90;;;;;;5031035;28;20199;-61
2023/08/23 06:15:24;;;;;;;0.00;0.00;;;17.10;53.90;;;;;;5032071;28;20192;-62
2023/08/23 06:17:57;;;;;;;0.10;0.10;;;17.10;53.90;;;;;;5031862;28;20213;-61
2023/08/23 06:20:28;;;;;;;0.00;0.00;;;17.10;53.90;;;;;;5031927;28;20262;-62
2023/08/23 06:22:59;;;;;;;0.05;0.05;;;17.10;53.90;;;;;;5031937;28;20327;-60
2023/08/23 06:25:32;;;;;;;0.08;0.08;;;17.10;53.90;;;;;;5031572;28;20592;-61
2023/08/23 06:28:02;;;;;;;0.10;0.10;;;17.00;53.90;;;;;;5031666;28;20227;-61
2023/08/23 06:30:33;;;;;;;0.03;0.03;;;17.00;53.90;;;;;;5031568;28;20200;-61
2023/08/23 06:33:05;;;;;;;0.10;0.10;;;17.00;53.90;;;;;;5031433;28;20200;-60
2023/08/23 06:35:36;;;;;;;0.08;0.08;;;17.00;53.90;;;;;;5031549;28;20668;-55
2023/08/23 06:38:06;;;;;;;0.00;0.00;;;17.00;53.80;;;;;;5030968;28;20711;-61
2023/08/23 06:40:40;;;;;;;0.00;0.00;;;17.00;54.00;;;;;;5031127;28;20203;-61
2023/08/23 06:43:11;;;;;;;0.00;0.00;;;17.00;54.10;;;;;;5030974;28;20246;-61
2023/08/23 06:45:41;;;;;;;0.00;0.00;;;17.00;54.00;;;;;;5018121;28;20193;-61
2023/08/23 06:48:12;;;;;;;0.00;0.00;;;17.00;54.00;;;;;;5029776;28;20559;-61
2023/08/23 06:50:42;;;;;;;0.00;0.00;;;16.90;53.80;;;;;;5030663;28;20201;-61
2023/08/23 06:53:13;;;;;;;0.10;0.10;;;16.90;53.80;;;;;;5031377;28;20196;-61
2023/08/23 06:55:46;;;;;;;0.08;0.08;;;16.90;53.80;;;;;;5031512;28;20199;-61
2023/08/23 06:58:16;;;;;;;0.10;0.10;;;16.90;53.80;;;;;;5030792;28;20220;-61
2023/08/23 07:00:47;;;;;;;0.00;0.00;;;16.90;53.80;;;;;;5031790;28;20294;-61
2023/08/23 07:03:17;;;;;;;0.00;0.00;;;16.90;53.80;;;;;;5027975;28;20228;-61
2023/08/23 07:05:48;;;;;;;0.10;0.10;;;16.80;53.80;;;;;;5030352;28;20219;-61
2023/08/23 07:08:20;;;;;;;0.10;0.10;;;16.80;53.80;;;;;;5030777;28;20699;-61
2023/08/23 07:10:53;;;;;;;0.10;0.10;;;16.80;53.80;;;;;;5031658;28;20203;-61
2023/08/23 07:13:23;;;;;;;0.10;0.10;;;16.80;53.70;;;;;;5032101;28;20200;-61
2023/08/23 07:15:54;;;;;;;0.10;0.10;;;16.80;53.70;;;;;;5031269;28;20203;-61
2023/08/23 07:18:25;;;;;;;0.05;0.05;;;16.80;53.70;;;;;;5031053;28;20211;-61
2023/08/23 07:20:56;;;;;;;0.10;0.10;;;16.80;53.80;;;;;;5029959;28;20199;-61
2023/08/23 07:23:27;;;;;;;0.10;0.10;;;16.80;53.70;;;;;;5031328;28;20219;-61
2023/08/23 07:26:02;;;;;;;0.10;0.10;;;16.70;53.70;;;;;;5030707;28;20207;-61
2023/08/23 07:28:33;;;;;;;0.05;0.05;;;16.70;53.70;;;;;;5029363;28;20216;-61
2023/08/23 07:31:04;;;;;;;0.10;0.10;;;16.70;53.70;;;;;;5030941;28;20219;-61
2023/08/23 07:33:35;;;;;;;0.05;0.05;;;16.60;53.70;;;;;;5031381;28;20196;-61
2023/08/23 07:36:05;;;;;;;0.10;0.10;;;16.60;53.70;;;;;;5030211;28;20196;-62
2023/08/23 07:38:36;;;;;;;0.00;0.00;;;16.60;53.70;;;;;;5030595;28;20223;-61
2023/08/23 07:41:09;;;;;;;0.10;0.10;;;16.60;53.70;;;;;;5030103;28;20204;-61
2023/08/23 07:43:39;;;;;;;0.10;0.10;;;16.60;53.80;;;;;;5031075;28;20232;-61
2023/08/23 07:46:10;;;;;;;0.03;0.03;;;16.50;53.70;;;;;;5030694;28;20196;-61
2023/08/23 07:48:41;;;;;;;0.00;0.00;;;16.50;53.70;;;;;;5030735;28;20236;-61
2023/08/23 07:51:11;;;;;;;0.10;0.10;;;16.50;53.80;;;;;;5030238;28;20748;-61
2023/08/23 07:53:43;;;;;;;0.10;0.10;;;16.50;53.70;;;;;;5030593;28;20200;-61
2023/08/23 07:56:17;;;;;;;0.10;0.10;;;16.50;53.80;;;;;;5031394;28;20205;-61
2023/08/23 07:58:48;;;;;;;0.10;0.10;;;16.50;53.70;;;;;;5031210;28;20223;-61
2023/08/23 08:01:18;;;;;;;0.10;0.10;;;16.40;53.60;;;;;;5031289;28;20196;-60
2023/08/23 08:03:51;;;;;;;0.10;0.10;;;16.40;53.70;;;;;;5031481;28;20227;-60
2023/08/23 08:06:22;;;;;;;0.00;0.00;;;16.40;53.70;;;;;;5030488;28;20215;-60
2023/08/23 08:08:55;;;;;;;0.10;0.10;;;16.40;53.70;;;;;;5030646;28;20707;-60
2023/08/23 08:11:28;;;;;;;0.10;0.10;;;16.40;53.70;;;;;;5030918;28;20196;-60
2023/08/23 08:13:58;;;;;;;0.08;0.08;;;16.30;53.70;;;;;;5031093;28;20655;-60
2023/08/23 08:16:29;;;;;;;0.10;0.10;;;16.30;53.70;;;;;;5031058;28;20208;-60
2023/08/23 08:19:00;;;;;;;0.10;0.10;;;16.30;53.70;;;;;;5030779;28;20693;-60
2023/08/23 08:21:30;;;;;;;0.10;0.10;;;16.30;53.70;;;;;;5030194;28;20218;-60
2023/08/23 08:24:01;;;;;;;0.10;0.10;;;16.20;53.60;;;;;;5031158;28;20278;-60
2023/08/23 08:26:33;;;;;;;0.00;0.00;;;16.20;53.60;;;;;;5031228;28;20685;-60
2023/08/23 08:29:04;;;;;;;0.00;0.00;;;16.20;53.60;;;;;;5030496;28;20303;-60
2023/08/23 08:31:36;;;;;;;0.10;0.10;;;16.20;53.60;;;;;;5030974;28;20203;-60
2023/08/23 08:34:07;;;;;;;0.10;0.10;;;16.20;53.70;;;;;;5033041;28;20250;-60
2023/08/23 08:36:40;;;;;;;0.10;0.10;;;16.20;53.70;;;;;;5034202;28;20192;-60
2023/08/23 08:39:11;;;;;;;0.10;0.10;;;16.10;53.70;;;;;;5034060;28;20224;-60
2023/08/23 08:41:44;;;;;;;0.00;0.00;;;16.10;53.60;;;;;;5034011;28;20196;-60
2023/08/23 08:44:14;;;;;;;0.10;0.10;;;16.10;53.60;;;;;;5033694;28;20223;-60
2023/08/23 08:46:45;;;;;;;0.10;0.10;;;16.10;53.70;;;;;;5034521;28;20196;-59
2023/08/23 08:49:16;;;;;;;0.10;0.10;;;16.10;53.80;;;;;;5034471;28;20696;-60
2023/08/23 08:51:50;;;;;;;0.10;0.10;;;16.10;53.80;;;;;;5033969;28;20207;-59
2023/08/23 08:54:22;;;;;;;0.10;0.10;;;16.10;53.90;;;;;;5033782;28;20196;-59
2023/08/23 08:56:55;;;;;;;0.10;0.10;;;16.00;53.90;;;;;;5033973;28;20204;-60
2023/08/23 08:59:27;;;;;;;0.10;0.10;;;16.00;53.90;;;;;;5034153;28;20203;-60
2023/08/23 09:01:59;;;;;;;0.03;0.03;;;16.00;53.90;;;;;;5033551;28;20192;-60
2023/08/23 09:04:30;;;;;;;0.10;0.10;;;16.00;53.90;;;;;;5033978;28;20315;-60
2023/08/23 09:07:00;;;;;;;0.10;0.10;;;16.00;53.90;;;;;;5033836;28;20212;-60
2023/08/23 09:09:31;;;;;;;0.10;0.10;;;16.00;53.90;;;;;;5033587;28;20196;-59
2023/08/23 09:12:04;;;;;;;0.08;0.08;;;15.90;53.90;;;;;;5033514;28;20200;-60
2023/08/23 09:14:35;;;;;;;0.10;0.10;;;15.90;53.90;;;;;;5033942;28;20196;-60
2023/08/23 09:17:07;;;;;;;0.10;0.10;;;15.90;53.90;;;;;;5033440;28;20572;-60
2023/08/23 09:19:42;;;;;;;0.00;0.00;;;15.90;53.90;;;;;;5033425;28;20271;-60
2023/08/23 09:22:13;;;;;;;0.10;0.10;;;15.90;53.90;;;;;;5033921;28;20249;-60
2023/08/23 09:24:43;;;;;;;0.03;0.03;;;15.80;53.80;;;;;;5030031;28;20306;-60
2023/08/23 09:27:16;;;;;;;0.10;0.10;;;15.80;53.80;;;;;;5033142;28;20680;-60
2023/08/23 09:29:47;;;;;;;0.10;0.10;;;15.80;53.80;;;;;;5032339;28;20195;-59
2023/08/23 09:32:18;;;;;;;0.10;0.10;;;15.80;53.90;;;;;;5032515;28;20203;-60
2023/08/23 09:34:49;;;;;;;0.00;0.00;;;15.70;53.80;;;;;;5032928;28;20204;-60
2023/08/23 09:37:21;;;;;;;0.10;0.10;;;15.80;53.80;;;;;;5032690;28;20219;-60
2023/08/23 09:39:51;;;;;;;0.10;0.10;;;15.70;53.80;;;;;;5032763;28;20203;-60
2023/08/23 09:42:24;;;;;;;0.10;0.10;;;15.70;53.80;;;;;;5032143;28;20656;-59
2023/08/23 09:44:56;;;;;;;0.10;0.10;;;15.70;53.80;;;;;;5034189;28;20679;-59
2023/08/23 09:47:30;;;;;;;0.10;0.10;;;15.70;53.80;;;;;;5031894;28;20223;-59
2023/08/23 09:50:05;;;;;;;0.10;0.10;;;15.70;53.80;;;;;;5032277;28;20196;-60
2023/08/23 09:52:39;;;;;;;0.10;0.10;;;15.60;53.80;;;;;;5032595;28;20607;-60
2023/08/23 09:55:13;;;;;;;0.10;0.10;;;15.70;53.80;;;;;;5013117;28;20596;-59
2023/08/23 09:57:47;;;;;;;0.08;0.08;;;15.60;53.80;;;;;;5026573;28;20220;-60
2023/08/23 10:00:18;;;;;;;0.10;0.10;;;15.60;53.80;;;;;;5012437;28;20675;-59
2023/08/23 10:02:49;;;;;;;0.10;0.10;;;15.60;53.80;;;;;;5012758;28;20228;-59
2023/08/23 10:05:21;;;;;;;0.00;0.00;;;15.60;53.80;;;;;;5031998;28;20239;-59
2023/08/23 10:07:52;;;;;;;0.10;0.10;;;15.50;53.70;;;;;;5030172;28;20219;-59
2023/08/23 10:10:23;;;;;;;0.10;0.10;;;15.50;53.70;;;;;;5051320;28;20769;-59
2023/08/23 10:12:58;;;;;;;0.10;0.10;;;15.50;53.70;;;;;;5051585;28;20267;-60
2023/08/23 10:15:32;;;;;;;0.10;0.10;;;15.50;53.80;;;;;;5037942;28;20192;-59
2023/08/23 10:18:04;;;;;;;0.10;0.10;;;15.50;53.70;;;;;;5031707;28;20210;-60
2023/08/23 10:20:38;;;;;;;0.10;0.10;;;15.40;53.70;;;;;;5031729;28;20204;-59
2023/08/23 10:23:15;;;;;;;0.10;0.10;;;15.40;53.70;;;;;;5032200;28;20197;-59
2023/08/23 10:25:46;;;;;;;0.10;0.10;;;15.40;53.80;;;;;;5032278;28;20192;-59
2023/08/23 10:28:19;;;;;;;0.00;0.00;;;15.40;53.70;;;;;;5030952;28;20222;-59
2023/08/23 10:30:52;;;;;;;0.10;0.10;;;15.40;53.80;;;;;;5032055;28;20652;-59
2023/08/23 10:33:23;;;;;;;0.10;0.10;;;15.40;53.80;;;;;;5031001;28;20580;-59
2023/08/23 10:35:54;;;;;;;0.10;0.10;;;15.30;53.70;;;;;;5031767;28;20323;-59
2023/08/23 10:38:25;;;;;;;0.10;0.10;;;15.30;53.80;;;;;;5031470;28;20208;-59
2023/08/23 10:40:55;;;;;;;0.00;0.00;;;15.30;53.80;;;;;;5032037;28;20204;-59
2023/08/23 10:43:33;;;;;;;0.10;0.10;;;15.30;53.80;;;;;;5031525;28;20191;-59
2023/08/23 10:46:07;;;;;;;0.00;0.00;;;15.30;53.80;;;;;;5032086;28;20195;-59
2023/08/23 10:48:38;;;;;;;0.10;0.10;;;15.30;53.80;;;;;;5031400;28;20218;-59
2023/08/23 10:51:10;;;;;;;0.10;0.10;;;15.30;53.80;;;;;;5031584;28;20674;-59
2023/08/23 10:53:42;;;;;;;0.10;0.10;;;15.20;53.70;;;;;;5031773;28;20199;-59
2023/08/23 10:56:13;;;;;;;0.10;0.10;;;15.20;53.70;;;;;;5029750;28;20215;-59
2023/08/23 10:58:48;;;;;;;0.10;0.10;;;15.20;53.80;;;;;;5030560;28;20223;-59
2023/08/23 11:01:18;;;;;;;0.10;0.10;;;15.20;53.80;;;;;;5030932;28;20647;-59
2023/08/23 11:03:49;;;;;;;0.10;0.10;;;15.20;54.40;;;;;;5031649;28;20224;-58
2023/08/23 11:06:20;;;;;;;0.10;0.10;;;15.20;53.80;;;;;;5030929;28;20554;-59
2023/08/23 11:08:51;;;;;;;0.10;0.10;;;15.20;53.80;;;;;;5030536;28;20211;-59
2023/08/23 11:11:22;;;;;;;0.10;0.10;;;15.20;53.80;;;;;;5030884;28;20200;-58
2023/08/23 11:13:54;;;;;;;0.10;0.10;;;15.10;53.80;;;;;;5031138;28;20200;-59
2023/08/23 11:16:25;;;;;;;0.00;0.00;;;15.10;53.80;;;;;;5030871;28;20200;-58
2023/08/23 11:18:56;;;;;;;0.10;0.10;;;15.10;53.80;;;;;;5030909;28;20219;-59
2023/08/23 11:21:29;;;;;;;0.10;0.10;;;15.10;53.80;;;;;;5030963;28;20196;-59
2023/08/23 11:24:03;;;;;;;0.10;0.10;;;15.10;53.80;;;;;;5030193;28;20714;-58
2023/08/23 11:26:35;;;;;;;0.10;0.10;;;15.10;53.90;;;;;;5031392;28;20226;-58
2023/08/23 11:29:08;;;;;;;0.10;0.10;;;15.10;53.80;;;;;;5029437;28;20583;-58
2023/08/23 11:31:39;;;;;;;0.00;0.00;;;15.00;53.80;;;;;;5031378;28;20683;-58
2023/08/23 11:34:11;;;;;;;0.10;0.10;;;15.00;53.80;;;;;;5031443;28;20200;-58
2023/08/23 11:36:42;;;;;;;0.10;0.10;;;15.00;53.80;;;;;;5029762;28;20196;-58
2023/08/23 11:39:14;;;;;;;0.10;0.10;;;15.00;53.80;;;;;;5030840;28;20216;-58
2023/08/23 11:41:45;;;;;;;0.00;0.00;;;15.00;53.80;;;;;;5030828;28;20192;-58
2023/08/23 11:44:18;;;;;;;0.00;0.00;;;15.00;53.80;;;;;;5030241;28;20235;-58
2023/08/23 11:46:51;;;;;;;0.10;0.10;;;15.00;53.80;;;;;;5030778;28;20552;-58
2023/08/23 11:49:21;;;;;;;0.10;0.10;;;14.90;53.80;;;;;;5031126;28;20227;-59
2023/08/23 11:51:53;;;;;;;0.10;0.10;;;15.00;53.80;;;;;;5030705;28;20192;-59
2023/08/23 11:54:24;;;;;;;0.10;0.10;;;14.90;53.80;;;;;;5031358;28;20204;-59
2023/08/23 11:56:55;;;;;;;0.10;0.10;;;14.90;53.80;;;;;;5031291;28;20238;-59
2023/08/23 11:59:27;;;;;;;0.10;0.10;;;14.90;54.40;;;;;;5030993;28;20618;-59
2023/08/23 12:01:58;;;;;;;0.10;0.10;;;14.90;53.80;;;;;;5030356;28;20200;-59
2023/08/23 12:04:28;;;;;;;0.00;0.00;;;14.90;53.80;;;;;;5030523;28;20219;-59
2023/08/23 12:06:59;;;;;;;0.10;0.10;;;14.90;53.80;;;;;;5028360;28;20196;-59
2023/08/23 12:09:30;;;;;;;0.10;0.10;;;14.90;53.80;;;;;;5034749;28;20647;-58
2023/08/23 12:12:02;;;;;;;0.10;0.10;;;14.90;53.90;;;;;;5032085;28;20199;-59
2023/08/23 12:14:34;;;;;;;0.10;0.10;;;14.80;53.80;;;;;;5034321;28;20259;-59
2023/08/23 12:17:05;;;;;;;0.10;0.10;;;14.80;53.80;;;;;;5032609;28;20188;-59
2023/08/23 12:19:37;;;;;;;0.10;0.10;;;14.80;53.80;;;;;;5034482;28;20193;-59
2023/08/23 12:22:11;;;;;;;0.10;0.10;;;14.80;53.90;;;;;;5034674;28;20247;-59
2023/08/23 12:24:42;;;;;;;0.10;0.10;;;14.80;53.80;;;;;;5032561;28;20225;-62
2023/08/23 12:27:13;;;;;;;0.10;0.10;;;14.80;53.90;;;;;;5034187;28;20200;-59
2023/08/23 12:29:46;;;;;;;0.10;0.10;;;14.70;53.80;;;;;;5032167;28;20211;-58
2023/08/23 12:32:16;;;;;;;0.10;0.10;;;14.70;53.90;;;;;;5034331;28;20188;-58
2023/08/23 12:34:47;;;;;;;0.10;0.10;;;14.70;53.80;;;;;;5034087;28;20192;-59
2023/08/23 12:37:18;;;;;;;0.10;0.10;;;14.70;53.90;;;;;;5033984;28;20216;-59
2023/08/23 12:39:49;;;;;;;0.10;0.10;;;14.70;53.90;;;;;;5034465;28;20198;-59
2023/08/23 12:42:20;;;;;;;0.10;0.10;;;14.70;53.90;;;;;;5031664;28;20184;-58
2023/08/23 12:44:52;;;;;;;0.10;0.10;;;14.70;53.90;;;;;;5033743;28;20220;-59
2023/08/23 12:47:23;;;;;;;0.10;0.10;;;14.70;54.00;;;;;;5033372;28;20229;-59
2023/08/23 12:49:54;;;;;;;0.10;0.10;;;14.70;53.90;;;;;;5033181;28;20886;-59
2023/08/23 12:52:24;;;;;;;0.10;0.10;;;14.60;53.90;;;;;;5031397;28;21288;-58
2023/08/23 12:54:55;;;;;;;0.13;0.13;;;14.60;53.90;;;;;;5033462;28;20188;-59
2023/08/23 12:57:26;;;;;;;0.10;0.10;;;14.60;53.90;;;;;;5033523;28;20216;-59
2023/08/23 12:59:58;;;;;;;0.10;0.10;;;14.60;53.90;;;;;;5033109;28;20192;-60
2023/08/23 13:02:29;;;;;;;0.10;0.10;;;14.60;53.90;;;;;;5033513;28;20275;-58
2023/08/23 13:04:59;;;;;;;0.10;0.10;;;14.60;53.90;;;;;;5030137;28;20227;-59
2023/08/23 13:07:30;;;;;;;0.00;0.00;;;14.60;53.90;;;;;;5033169;28;20216;-59
2023/08/23 13:10:02;;;;;;;0.10;0.10;;;14.60;53.90;;;;;;5030733;28;20196;-59